Date,TemperatureHighF,TemperatureAvgF,TemperatureLowF,DewpointHighF,DewpointAvgF,DewpointLowF,HumidityHigh,HumidityAvg,HumidityLow,PressureMaxIn,PressureMinIn,WindSpeedMaxMPH,WindSpeedAvgMPH,GustSpeedMaxMPH,PrecipitationSumIn
2013-3-1,30,28,26,-100,-100,-100,0,0,100,0.00,40.00,0,-999,0,0.00
2013-3-2,35,28,25,-100,-100,-100,0,0,100,0.00,40.00,0,-999,0,0.00
2013-3-3,43,37,29,-100,-100,-100,0,0,100,0.00,40.00,0,-999,0,0.00
2013-3-4,52,42,37,-100,-100,-100,0,0,100,0.00,40.00,0,-999,0,0.00
2013-3-5,36,33,28,-100,-100,-100,0,0,100,0.00,40.00,0,-999,0,0.00
2013-3-6,40,32,25,-100,-100,-100,0,0,100,0.00,40.00,0,-999,0,0.00
2013-3-7,53,39,26,-100,-100,-100,0,0,100,0.00,40.00,0,-999,0,0.00
2013-3-8,57,46,36,-100,-100,-100,0,0,100,0.00,40.00,0,-999,0,0.00
2013-3-9,58,53,50,-100,-100,-100,0,0,100,0.00,40.00,0,-999,0,0.00
2013-3-10,55,42,32,-100,-100,-100,0,0,100,0.00,40.00,0,-999,0,0.00
2013-3-11,37,30,26,-100,-100,-100,0,0,100,0.00,40.00,0,-999,0,0.00
2013-3-12,43,36,30,-100,-100,-100,0,0,100,0.00,40.00,0,-999,0,0.00
2013-3-13,48,34,25,-100,-100,-100,0,0,100,0.00,40.00,0,-999,0,0.00
2013-3-14,71,51,36,-100,-100,-100,0,0,100,0.00,40.00,0,-999,0,0.00
2013-3-15,80,58,37,-100,-100,-100,0,0,100,0.00,40.00,0,-999,0,0.00
2013-3-16,59,44,40,-100,-100,-100,0,0,100,0.00,40.00,0,-999,0,0.00
2013-3-17,38,35,33,-100,-100,-100,0,0,100,0.00,40.00,0,-999,0,0.00
2013-3-18,51,42,35,-100,-100,-100,0,0,100,0.00,40.00,0,-999,0,0.00
2013-3-19,44,36,29,-100,-100,-100,0,0,100,0.00,40.00,0,-999,0,0.00
2013-3-20,38,31,25,-100,-100,-100,0,0,100,0.00,40.00,0,-999,0,0.00
2013-3-21,30,28,25,-100,-100,-100,0,0,100,0.00,40.00,0,-999,0,0.00
2013-3-22,35,31,29,-100,-100,-100,0,0,100,0.00,40.00,0,-999,0,0.00
2013-3-23,39,34,32,-100,-100,-100,0,0,100,0.00,40.00,0,-999,0,0.00
2013-3-24,33,29,25,-100,-100,-100,0,0,100,0.00,40.00,0,-999,0,0.00
2013-3-25,32,27,22,-100,-100,-100,0,0,100,0.00,40.00,0,-999,0,0.00
2013-3-26,40,30,20,-100,-100,-100,0,0,100,0.00,40.00,0,-999,0,0.00
2013-3-27,51,37,26,-100,-100,-100,0,0,100,0.00,40.00,0,-999,0,0.00
2013-3-28,64,49,38,-100,-100,-100,0,0,100,0.00,40.00,0,-999,0,0.00
2013-3-29,69,57,43,-100,-100,-100,0,0,100,0.00,40.00,0,-999,0,0.00
2013-3-30,66,58,53,-100,-100,-100,0,0,100,0.00,40.00,0,-999,0,0.00
2013-3-31,63,56,47,-100,-100,-100,0,0,100,0.00,40.00,0,-999,0,0.00